createdAt,value
2023-04-29T00:02:16.708Z,80.34
2023-04-29T00:04:43.530Z,81.49
2023-04-29T00:07:19.064Z,81.87
2023-04-29T00:09:45.128Z,82.74
2023-04-29T00:12:11.736Z,83.20
2023-04-29T00:14:37.904Z,83.56
2023-04-29T00:17:04.373Z,83.74
2023-04-29T00:19:30.718Z,84.74
2023-04-29T00:21:57.119Z,85.00
2023-04-29T00:24:23.222Z,84.80
2023-04-29T00:26:49.653Z,84.59
2023-04-29T00:29:16.012Z,84.54
2023-04-29T00:31:42.345Z,84.88
2023-04-29T00:34:08.450Z,84.03
2023-04-29T00:36:34.791Z,84.53
2023-04-29T00:39:00.798Z,84.71
2023-04-29T00:41:27.203Z,84.80
2023-04-29T00:43:53.286Z,84.55
2023-04-29T00:46:19.748Z,84.98
2023-04-29T00:48:46.125Z,85.18
2023-04-29T00:51:13.132Z,85.78
2023-04-29T00:53:39.271Z,85.76
2023-04-29T00:56:06.835Z,86.53
2023-04-29T00:58:34.661Z,85.63
2023-04-29T01:01:03.082Z,85.41
2023-04-29T01:03:32.612Z,85.53
2023-04-29T01:06:11.182Z,85.99
2023-04-29T01:09:05.591Z,87.56
2023-04-29T01:11:41.921Z,88.17
2023-04-29T01:14:08.347Z,86.73
2023-04-29T01:16:57.580Z,86.92
2023-04-29T01:19:36.028Z,87.33
2023-04-29T01:22:02.495Z,87.82
2023-04-29T01:24:29.573Z,88.56
2023-04-29T01:27:10.007Z,88.89
2023-04-29T01:30:08.110Z,88.74
2023-04-29T01:33:19.471Z,89.11
2023-04-29T01:36:08.618Z,89.40
2023-04-29T01:38:35.476Z,89.87
2023-04-29T01:41:13.723Z,89.78
2023-04-29T01:43:42.371Z,89.40
2023-04-29T01:46:20.735Z,88.95
2023-04-29T01:48:53.421Z,88.77
2023-04-29T01:51:19.628Z,89.34
2023-04-29T01:53:45.999Z,88.73
2023-04-29T01:56:12.136Z,88.89
2023-04-29T01:58:57.158Z,89.66
2023-04-29T02:01:26.080Z,90.67
2023-04-29T02:03:52.832Z,90.49
2023-04-29T02:06:19.367Z,90.53
2023-04-29T02:08:49.513Z,91.21
2023-04-29T02:11:16.410Z,89.41
2023-04-29T02:13:42.910Z,90.36
2023-04-29T02:16:12.403Z,90.22
2023-04-29T02:18:59.043Z,90.06
2023-04-29T02:21:26.400Z,91.24
2023-04-29T02:23:53.782Z,93.31
2023-04-29T02:26:23.064Z,93.33
2023-04-29T02:28:49.859Z,93.50
2023-04-29T02:31:15.972Z,93.22
2023-04-29T02:33:44.651Z,92.90
2023-04-29T02:36:10.761Z,92.59
2023-04-29T02:38:37.127Z,92.19
2023-04-29T02:41:03.184Z,91.64
2023-04-29T02:43:32.436Z,91.34
2023-04-29T02:45:59.536Z,91.72
2023-04-29T02:48:26.430Z,91.13
2023-04-29T02:50:52.680Z,91.28
2023-04-29T02:53:20.272Z,91.55
2023-04-29T02:55:46.512Z,91.34
2023-04-29T02:58:12.929Z,91.59
2023-04-29T03:00:41.369Z,91.18
2023-04-29T03:03:07.835Z,90.62
2023-04-29T03:05:37.208Z,90.45
2023-04-29T03:08:04.068Z,90.70
2023-04-29T03:10:30.539Z,90.37
2023-04-29T03:12:57.030Z,90.64
2023-04-29T03:15:23.182Z,90.25
2023-04-29T03:17:50.335Z,89.90
2023-04-29T03:20:16.468Z,89.97
2023-04-29T03:22:42.868Z,89.65
2023-04-29T03:25:09.851Z,90.01
2023-04-29T03:27:38.274Z,89.54
2023-04-29T03:30:06.226Z,89.64
2023-04-29T03:32:33.121Z,89.50
2023-04-29T03:34:59.802Z,90.36
2023-04-29T03:37:37.331Z,89.52
2023-04-29T03:40:18.545Z,89.70
2023-04-29T03:42:45.294Z,89.74
2023-04-29T03:45:14.326Z,89.60
2023-04-29T03:47:40.860Z,89.68
2023-04-29T03:50:07.718Z,90.02
2023-04-29T03:52:35.859Z,89.12
2023-04-29T03:55:06.548Z,90.13
2023-04-29T03:57:33.079Z,90.24
2023-04-29T03:59:59.218Z,90.12
2023-04-29T04:02:25.906Z,91.41
2023-04-29T04:04:54.679Z,91.18
2023-04-29T04:07:21.215Z,92.39
2023-04-29T04:10:22.364Z,92.44
2023-04-29T04:12:48.908Z,92.63
2023-04-29T04:15:16.345Z,92.56
2023-04-29T04:17:42.783Z,92.22
2023-04-29T04:20:09.433Z,92.29
2023-04-29T04:22:36.164Z,92.30
2023-04-29T04:25:13.294Z,92.25
2023-04-29T04:27:40.395Z,92.46
2023-04-29T04:30:10.969Z,92.25
2023-04-29T04:32:39.215Z,92.32
2023-04-29T04:35:06.944Z,92.08
2023-04-29T04:37:33.311Z,92.60
2023-04-29T04:40:00.603Z,92.24
2023-04-29T04:42:27.179Z,91.98
2023-04-29T04:44:56.942Z,91.63
2023-04-29T04:47:41.665Z,91.45
2023-04-29T04:50:21.294Z,91.78
2023-04-29T04:52:49.422Z,91.29
2023-04-29T04:55:28.909Z,91.54
2023-04-29T04:57:56.141Z,91.63
2023-04-29T05:00:22.340Z,92.13
2023-04-29T05:02:49.089Z,90.40
2023-04-29T05:05:15.465Z,90.14
2023-04-29T05:07:43.165Z,89.90
2023-04-29T05:10:10.487Z,89.98
2023-04-29T05:12:45.962Z,90.21
2023-04-29T05:15:14.277Z,90.38
2023-04-29T05:17:42.437Z,91.14
2023-04-29T05:20:09.034Z,91.12
2023-04-29T05:22:35.613Z,90.63
2023-04-29T05:25:02.144Z,91.60
2023-04-29T05:27:29.966Z,91.20
2023-04-29T05:29:56.376Z,91.42
2023-04-29T05:32:23.047Z,90.92
2023-04-29T05:34:49.934Z,92.03
2023-04-29T05:37:17.168Z,92.31
2023-04-29T05:39:59.655Z,90.63
2023-04-29T05:42:26.567Z,91.80
2023-04-29T05:44:53.024Z,90.85
2023-04-29T05:47:38.179Z,90.83
2023-04-29T05:50:04.978Z,90.63
2023-04-29T05:52:31.454Z,89.99
2023-04-29T05:54:58.174Z,88.92
2023-04-29T05:57:24.706Z,87.68
2023-04-29T05:59:54.636Z,86.92
2023-04-29T06:02:21.818Z,86.34
2023-04-29T06:04:48.720Z,81.08
2023-04-29T06:07:48.197Z,74.46
2023-04-29T06:10:32.568Z,80.09
2023-04-29T06:12:59.304Z,80.24
2023-04-29T06:15:25.627Z,81.40
2023-04-29T06:17:52.998Z,80.53
2023-04-29T06:20:19.508Z,82.19
2023-04-29T06:22:46.806Z,83.58
2023-04-29T06:25:13.505Z,84.67
2023-04-29T06:27:46.016Z,85.22
2023-04-29T06:30:12.761Z,85.91
2023-04-29T06:32:40.244Z,84.91
2023-04-29T06:35:07.360Z,85.11
2023-04-29T06:37:52.626Z,85.24
2023-04-29T06:40:36.764Z,85.48
2023-04-29T06:43:08.042Z,85.49
2023-04-29T06:45:34.695Z,84.89
2023-04-29T06:48:06.856Z,84.33
2023-04-29T06:50:38.635Z,85.42
2023-04-29T06:53:06.864Z,86.20
2023-04-29T06:55:35.108Z,84.95
2023-04-29T06:58:03.816Z,84.74
2023-04-29T07:00:30.985Z,84.72
2023-04-29T07:02:57.937Z,84.67
2023-04-29T07:05:24.565Z,85.58
2023-04-29T07:07:51.127Z,85.33
2023-04-29T07:10:17.873Z,85.86
2023-04-29T07:12:44.421Z,86.18
2023-04-29T07:15:10.822Z,85.42
2023-04-29T07:17:37.556Z,84.83
2023-04-29T07:20:04.797Z,85.41
2023-04-29T07:22:31.428Z,85.26
2023-04-29T07:24:57.763Z,85.78
2023-04-29T07:27:24.928Z,84.93
2023-04-29T07:29:51.951Z,84.40
2023-04-29T07:32:18.556Z,83.78
2023-04-29T07:34:44.898Z,81.55
2023-04-29T07:37:11.699Z,80.38
2023-04-29T07:39:37.954Z,74.27
2023-04-29T07:42:04.636Z,73.09
2023-04-29T07:44:31.291Z,73.28
2023-04-29T07:46:58.469Z,73.84
2023-04-29T07:49:25.750Z,73.32
2023-04-29T07:51:52.718Z,73.76
2023-04-29T07:54:19.235Z,73.55
2023-04-29T07:56:45.924Z,70.78
2023-04-29T07:59:12.124Z,69.69
2023-04-29T08:01:40.848Z,70.14
2023-04-29T08:04:07.801Z,69.00
2023-04-29T08:06:42.268Z,68.55
2023-04-29T08:09:11.115Z,69.37
2023-04-29T08:11:41.046Z,70.09
2023-04-29T08:14:08.062Z,70.39
2023-04-29T08:16:35.178Z,71.36
2023-04-29T08:19:01.446Z,71.89
2023-04-29T08:21:27.944Z,73.32
2023-04-29T08:23:54.937Z,72.57
2023-04-29T08:26:23.156Z,70.52
2023-04-29T08:28:50.254Z,68.03
2023-04-29T08:31:20.830Z,66.61
2023-04-29T08:33:47.949Z,66.75
2023-04-29T08:36:14.379Z,67.53
2023-04-29T08:38:40.699Z,68.84
2023-04-29T08:41:11.207Z,68.31
2023-04-29T08:43:39.753Z,71.38
2023-04-29T08:46:07.129Z,72.21
2023-04-29T08:48:34.856Z,71.15
2023-04-29T08:51:01.730Z,71.06
2023-04-29T08:53:28.048Z,69.73
2023-04-29T08:55:56.902Z,71.12
2023-04-29T08:58:25.691Z,70.79
2023-04-29T09:00:52.359Z,70.73
2023-04-29T09:03:26.574Z,70.29
2023-04-29T09:05:54.849Z,69.40
2023-04-29T09:08:23.252Z,70.47
2023-04-29T09:10:52.043Z,70.47
2023-04-29T09:13:29.824Z,71.63
2023-04-29T09:15:57.090Z,73.13
2023-04-29T09:18:42.017Z,74.27
2023-04-29T09:21:21.645Z,76.90
2023-04-29T09:23:51.375Z,76.86
2023-04-29T09:26:17.764Z,77.84
2023-04-29T09:28:44.468Z,75.11
2023-04-29T09:31:11.770Z,77.24
2023-04-29T09:33:58.553Z,79.17
2023-04-29T09:36:48.216Z,82.96
2023-04-29T09:39:22.543Z,82.14
2023-04-29T09:41:52.374Z,85.86
2023-04-29T09:44:27.479Z,83.34
2023-04-29T09:47:02.042Z,84.01
2023-04-29T09:49:36.493Z,84.12
2023-04-29T09:52:05.268Z,80.30
2023-04-29T09:54:33.498Z,80.12
2023-04-29T09:57:05.357Z,81.09
2023-04-29T09:59:35.397Z,79.71
2023-04-29T10:02:09.571Z,78.15
2023-04-29T10:04:40.256Z,79.04
2023-04-29T10:07:08.832Z,79.09
2023-04-29T10:09:39.109Z,79.73
2023-04-29T10:12:07.074Z,79.51
2023-04-29T10:14:43.110Z,80.47
2023-04-29T10:17:38.748Z,84.77
2023-04-29T10:20:06.157Z,84.87
2023-04-29T10:22:41.822Z,84.37
2023-04-29T10:25:10.563Z,85.06
2023-04-29T10:27:38.418Z,85.94
2023-04-29T10:30:08.868Z,86.09
2023-04-29T10:32:49.760Z,88.12
2023-04-29T10:35:19.344Z,84.58
2023-04-29T10:37:47.860Z,83.62
2023-04-29T10:40:20.481Z,80.30
2023-04-29T10:42:51.849Z,80.31
2023-04-29T10:45:32.047Z,82.02
2023-04-29T10:48:11.182Z,81.41
2023-04-29T10:50:46.696Z,81.37
2023-04-29T10:53:14.420Z,81.48
2023-04-29T10:55:41.679Z,80.09
2023-04-29T10:58:45.819Z,79.48
2023-04-29T11:01:16.784Z,81.96
2023-04-29T11:04:01.065Z,81.16
2023-04-29T11:06:34.213Z,81.12
2023-04-29T11:09:01.908Z,80.79
2023-04-29T11:12:07.413Z,80.12
2023-04-29T11:14:36.260Z,81.75
2023-04-29T11:17:12.674Z,82.13
2023-04-29T11:19:49.619Z,85.75
2023-04-29T11:22:20.446Z,88.92
2023-04-29T11:25:03.312Z,92.41
2023-04-29T11:27:34.976Z,94.85
2023-04-29T11:30:04.348Z,96.51
2023-04-29T11:32:32.370Z,96.00
2023-04-29T11:35:12.141Z,98.06
2023-04-29T11:37:39.861Z,98.80
2023-04-29T11:40:07.269Z,97.79
2023-04-29T11:42:42.202Z,97.59
2023-04-29T11:45:09.176Z,96.10
2023-04-29T11:47:35.761Z,96.41
2023-04-29T11:50:07.357Z,93.88
2023-04-29T11:52:38.861Z,93.47
2023-04-29T11:55:08.268Z,93.94
2023-04-29T11:57:35.640Z,94.05
2023-04-29T12:00:03.665Z,93.43
2023-04-29T12:02:35.004Z,94.29
2023-04-29T12:05:07.534Z,98.09
2023-04-29T12:07:35.685Z,97.11
2023-04-29T12:10:02.515Z,95.51
2023-04-29T12:12:30.946Z,95.98
2023-04-29T12:14:57.693Z,96.14
2023-04-29T12:17:24.024Z,95.11
2023-04-29T12:19:50.646Z,97.04
2023-04-29T12:22:19.241Z,94.96
2023-04-29T12:24:46.346Z,94.69
2023-04-29T12:27:12.540Z,95.97
2023-04-29T12:29:41.861Z,93.79
2023-04-29T12:32:15.954Z,94.78
2023-04-29T12:34:42.306Z,89.80
2023-04-29T12:37:09.147Z,89.95
2023-04-29T12:39:35.754Z,88.88
2023-04-29T12:42:02.332Z,90.53
2023-04-29T12:44:40.037Z,92.07
2023-04-29T12:47:10.764Z,90.43
2023-04-29T12:49:37.844Z,90.25
2023-04-29T12:52:05.504Z,86.12
2023-04-29T12:54:32.112Z,88.42
2023-04-29T12:56:58.348Z,88.39
2023-04-29T12:59:24.800Z,89.27
2023-04-29T13:01:50.886Z,91.86
2023-04-29T13:04:17.488Z,93.95
2023-04-29T13:06:43.666Z,95.78
2023-04-29T13:09:14.928Z,95.46
2023-04-29T13:11:44.858Z,95.79
2023-04-29T13:14:11.459Z,96.60
2023-04-29T13:16:38.110Z,97.40
2023-04-29T13:19:17.098Z,95.12
2023-04-29T13:21:51.501Z,95.46
2023-04-29T13:24:19.521Z,96.64
2023-04-29T13:26:48.017Z,100.00
2023-04-29T13:29:15.808Z,100.00
2023-04-29T13:31:43.497Z,100.00
2023-04-29T13:34:10.282Z,100.00
2023-04-29T13:36:36.754Z,100.00
2023-04-29T13:39:03.697Z,100.00
2023-04-29T13:41:33.613Z,100.00
2023-04-29T13:44:02.265Z,100.00
2023-04-29T13:46:30.339Z,100.00
2023-04-29T13:49:22.781Z,100.00
2023-04-29T13:57:30.241Z,100.00
2023-04-29T14:04:32.235Z,100.00
2023-04-29T14:06:59.232Z,100.00
2023-04-29T14:09:26.168Z,100.00
2023-04-29T14:11:53.324Z,100.00
2023-04-29T14:14:19.866Z,100.00
2023-04-29T14:16:46.921Z,100.00
2023-04-29T14:19:13.337Z,100.00
2023-04-29T14:21:39.984Z,100.00
2023-04-29T14:24:06.498Z,100.00
2023-04-29T14:26:32.772Z,100.00
2023-04-29T14:28:59.673Z,100.00
2023-04-29T14:31:28.460Z,100.00
2023-04-29T14:33:58.825Z,100.00
2023-04-29T14:36:25.977Z,100.00
2023-04-29T14:38:52.969Z,100.00
2023-04-29T14:41:20.848Z,100.00
2023-04-29T14:43:47.419Z,100.00
2023-04-29T14:46:13.827Z,100.00
2023-04-29T14:48:40.333Z,100.00
2023-04-29T14:51:07.863Z,100.00
2023-04-29T14:53:34.446Z,100.00
2023-04-29T14:56:03.948Z,100.00
2023-04-29T14:58:30.616Z,100.00
2023-04-29T15:00:56.787Z,100.00
2023-04-29T15:03:23.437Z,100.00
2023-04-29T15:05:50.520Z,100.00
2023-04-29T15:08:17.732Z,100.00
2023-04-29T15:10:46.678Z,100.00
2023-04-29T15:13:13.171Z,100.00
2023-04-29T15:15:39.555Z,100.00
2023-04-29T15:18:07.871Z,100.00
2023-04-29T15:20:37.530Z,100.00
2023-04-29T15:23:05.577Z,100.00
2023-04-29T15:25:33.900Z,100.00
2023-04-29T15:28:01.535Z,100.00
2023-04-29T15:30:28.036Z,100.00
2023-04-29T15:32:55.151Z,100.00
2023-04-29T15:35:22.012Z,100.00
2023-04-29T15:37:50.009Z,100.00
2023-04-29T15:40:16.953Z,100.00
2023-04-29T15:42:43.678Z,100.00
2023-04-29T15:45:10.597Z,100.00
2023-04-29T15:47:37.520Z,100.00
2023-04-29T15:50:04.167Z,100.00
2023-04-29T15:52:30.955Z,100.00
2023-04-29T15:54:57.699Z,100.00
2023-04-29T15:57:25.288Z,100.00
2023-04-29T15:59:51.916Z,100.00
2023-04-29T16:02:19.698Z,100.00
2023-04-29T16:04:45.991Z,100.00
2023-04-29T16:07:12.683Z,100.00
2023-04-29T16:09:38.896Z,100.00
2023-04-29T16:12:05.806Z,100.00
2023-04-29T16:14:32.052Z,100.00
2023-04-29T16:16:59.844Z,100.00
2023-04-29T16:19:26.278Z,100.00
2023-04-29T16:21:52.722Z,100.00
2023-04-29T16:24:18.825Z,100.00
2023-04-29T16:26:47.317Z,100.00
2023-04-29T16:29:13.631Z,100.00
2023-04-29T16:31:40.994Z,100.00
2023-04-29T16:34:07.158Z,100.00
2023-04-29T16:36:33.797Z,100.00
2023-04-29T16:39:00.257Z,100.00
2023-04-29T16:41:26.812Z,100.00
2023-04-29T16:43:53.512Z,100.00
2023-04-29T16:46:20.190Z,100.00
2023-04-29T16:48:46.692Z,100.00
2023-04-29T16:51:13.263Z,100.00
2023-04-29T16:53:39.518Z,100.00
2023-04-29T16:56:06.624Z,100.00
2023-04-29T16:58:32.922Z,100.00
2023-04-29T17:00:59.830Z,100.00
2023-04-29T17:03:26.408Z,100.00
2023-04-29T17:05:53.179Z,100.00
2023-04-29T17:08:21.516Z,100.00
2023-04-29T17:10:48.200Z,100.00
2023-04-29T17:13:14.775Z,100.00
2023-04-29T17:15:41.320Z,100.00
2023-04-29T17:18:07.661Z,100.00
2023-04-29T17:20:34.498Z,100.00
2023-04-29T17:23:01.134Z,100.00
2023-04-29T17:25:28.148Z,100.00
2023-04-29T17:27:54.525Z,100.00
2023-04-29T17:30:21.274Z,100.00
2023-04-29T17:32:48.998Z,100.00
2023-04-29T17:35:15.642Z,100.00
2023-04-29T17:37:41.899Z,100.00
2023-04-29T17:40:09.189Z,100.00
2023-04-29T17:42:35.775Z,100.00
2023-04-29T17:45:02.814Z,100.00
2023-04-29T17:47:29.194Z,100.00
2023-04-29T17:49:59.534Z,100.00
2023-04-29T17:52:28.670Z,100.00
2023-04-29T17:54:55.238Z,100.00
2023-04-29T17:57:21.746Z,100.00
2023-04-29T17:59:48.439Z,100.00
2023-04-29T18:02:15.138Z,100.00
2023-04-29T18:04:42.035Z,100.00
2023-04-29T18:07:08.493Z,100.00
2023-04-29T18:09:35.563Z,100.00
2023-04-29T18:12:02.417Z,100.00
2023-04-29T18:14:30.364Z,100.00
2023-04-29T18:16:59.369Z,100.00
2023-04-29T18:19:27.188Z,100.00
2023-04-29T18:21:57.533Z,100.00
2023-04-29T18:24:30.467Z,100.00
2023-04-29T18:26:57.269Z,100.00
2023-04-29T18:29:24.151Z,100.00
2023-04-29T18:31:52.088Z,100.00
2023-04-29T18:34:18.811Z,100.00
2023-04-29T18:36:45.368Z,100.00
2023-04-29T18:39:12.113Z,100.00
2023-04-29T18:41:38.933Z,100.00
2023-04-29T18:44:05.637Z,100.00
2023-04-29T18:46:35.571Z,100.00
2023-04-29T18:49:03.057Z,100.00
2023-04-29T18:51:30.608Z,100.00
2023-04-29T18:53:57.346Z,100.00
2023-04-29T18:56:25.328Z,100.00
2023-04-29T18:58:52.039Z,100.00
2023-04-29T19:01:18.995Z,100.00
2023-04-29T19:03:45.902Z,100.00
2023-04-29T19:06:12.308Z,100.00
2023-04-29T19:08:38.853Z,100.00
2023-04-29T19:11:05.611Z,100.00
2023-04-29T19:13:32.302Z,100.00
2023-04-29T19:15:58.923Z,100.00
2023-04-29T19:18:25.730Z,100.00
2023-04-29T19:20:52.919Z,100.00
2023-04-29T19:23:20.020Z,100.00
2023-04-29T19:25:46.359Z,100.00
2023-04-29T19:28:13.090Z,100.00
2023-04-29T19:30:39.507Z,100.00
2023-04-29T19:33:06.184Z,100.00
2023-04-29T19:35:32.806Z,100.00
2023-04-29T19:37:59.368Z,100.00
2023-04-29T19:40:25.781Z,100.00
2023-04-29T19:42:52.618Z,100.00
2023-04-29T19:45:19.059Z,100.00
2023-04-29T19:47:47.943Z,100.00
2023-04-29T19:50:15.927Z,100.00
2023-04-29T19:52:44.460Z,100.00
2023-04-29T19:55:11.062Z,100.00
2023-04-29T19:57:38.110Z,100.00
2023-04-29T20:00:05.475Z,100.00
2023-04-29T20:02:33.244Z,100.00
2023-04-29T20:04:59.834Z,100.00
2023-04-29T20:07:26.498Z,100.00
2023-04-29T20:09:55.557Z,100.00
2023-04-29T20:12:22.556Z,100.00
2023-04-29T20:14:49.029Z,100.00
2023-04-29T20:17:17.050Z,100.00
2023-04-29T20:19:43.781Z,100.00
2023-04-29T20:22:10.603Z,100.00
2023-04-29T20:24:36.727Z,100.00
2023-04-29T20:27:03.789Z,100.00
2023-04-29T20:29:30.002Z,100.00
2023-04-29T20:31:56.706Z,100.00
2023-04-29T20:34:23.098Z,100.00
2023-04-29T20:36:49.789Z,100.00
2023-04-29T20:39:17.295Z,100.00
2023-04-29T20:41:44.004Z,100.00
2023-04-29T20:44:10.693Z,100.00
2023-04-29T20:46:37.412Z,100.00
2023-04-29T20:49:04.464Z,100.00
2023-04-29T20:51:32.211Z,100.00
2023-04-29T20:53:58.746Z,100.00
2023-04-29T20:56:25.694Z,100.00
2023-04-29T20:58:52.123Z,100.00
2023-04-29T21:01:18.773Z,100.00
2023-04-29T21:03:45.154Z,100.00
2023-04-29T21:06:12.223Z,100.00
2023-04-29T21:08:38.829Z,100.00
2023-04-29T21:11:07.102Z,100.00
2023-04-29T21:13:33.290Z,100.00
2023-04-29T21:15:59.762Z,100.00
2023-04-29T21:18:25.950Z,100.00
2023-04-29T21:20:52.619Z,100.00
2023-04-29T21:23:18.811Z,100.00
2023-04-29T21:25:45.512Z,100.00
2023-04-29T21:28:11.710Z,100.00
2023-04-29T21:30:38.140Z,100.00
2023-04-29T21:33:04.449Z,100.00
2023-04-29T21:35:30.833Z,100.00
2023-04-29T21:37:56.972Z,100.00
2023-04-29T21:40:25.737Z,100.00
2023-04-29T21:42:54.438Z,100.00
2023-04-29T21:45:21.151Z,100.00
2023-04-29T21:47:47.901Z,100.00
2023-04-29T21:50:14.854Z,100.00
2023-04-29T21:52:41.428Z,100.00
2023-04-29T21:55:09.317Z,100.00
2023-04-29T21:57:43.377Z,100.00
2023-04-29T22:00:27.569Z,100.00
2023-04-29T22:02:53.844Z,100.00
2023-04-29T22:05:20.301Z,100.00
2023-04-29T22:07:46.564Z,100.00
2023-04-29T22:10:12.976Z,100.00
2023-04-29T22:12:39.111Z,100.00
2023-04-29T22:15:09.104Z,100.00
2023-04-29T22:17:40.365Z,100.00
2023-04-29T22:20:07.891Z,100.00
2023-04-29T22:22:33.988Z,100.00
2023-04-29T22:25:03.953Z,100.00
2023-04-29T22:27:30.993Z,100.00
2023-04-29T22:29:58.844Z,100.00
2023-04-29T22:32:25.186Z,100.00
2023-04-29T22:34:51.895Z,100.00
2023-04-29T22:37:18.059Z,100.00
2023-04-29T22:39:44.782Z,100.00
2023-04-29T22:42:10.902Z,100.00
2023-04-29T22:44:37.375Z,100.00
2023-04-29T22:47:03.530Z,100.00
2023-04-29T22:49:29.960Z,100.00
2023-04-29T22:51:56.059Z,100.00
2023-04-29T22:54:22.436Z,100.00
2023-04-29T22:56:48.617Z,100.00
2023-04-29T22:59:14.999Z,100.00
2023-04-29T23:01:41.115Z,100.00
2023-04-29T23:04:07.603Z,100.00
2023-04-29T23:06:34.499Z,100.00
2023-04-29T23:09:01.208Z,100.00
2023-04-29T23:11:27.446Z,100.00
2023-04-29T23:13:54.145Z,100.00
2023-04-29T23:16:20.262Z,100.00
2023-04-29T23:18:46.833Z,100.00
2023-04-29T23:21:13.063Z,100.00
2023-04-29T23:23:39.465Z,100.00
2023-04-29T23:26:05.601Z,100.00
2023-04-29T23:28:32.093Z,100.00
2023-04-29T23:30:58.214Z,100.00
2023-04-29T23:33:24.711Z,100.00
2023-04-29T23:35:51.757Z,100.00
2023-04-29T23:38:19.203Z,100.00
2023-04-29T23:40:46.125Z,100.00
2023-04-29T23:43:15.854Z,100.00
2023-04-29T23:45:45.378Z,100.00
2023-04-29T23:48:11.942Z,100.00
2023-04-29T23:50:38.091Z,100.00
2023-04-29T23:53:04.467Z,100.00
2023-04-29T23:55:30.869Z,100.00
2023-04-29T23:57:57.314Z,100.00
